createdAt,value
2018-09-17T00:00:17.339Z,22.65
2018-09-17T00:02:46.887Z,22.67
2018-09-17T00:05:16.430Z,22.77
2018-09-17T00:07:45.974Z,22.79
2018-09-17T00:10:15.571Z,22.75
2018-09-17T00:12:45.159Z,22.78
2018-09-17T00:15:14.667Z,22.81
2018-09-17T00:17:44.207Z,22.80
2018-09-17T00:20:13.699Z,22.84
2018-09-17T00:22:43.259Z,22.85
2018-09-17T00:25:12.831Z,22.85
2018-09-17T00:27:42.483Z,22.85
2018-09-17T00:30:12.078Z,22.85
2018-09-17T00:32:41.681Z,22.83
2018-09-17T00:35:11.227Z,22.80
2018-09-17T00:37:40.738Z,22.78
2018-09-17T00:40:10.275Z,22.70
2018-09-17T00:42:39.774Z,22.72
2018-09-17T00:45:09.310Z,22.62
2018-09-17T00:47:38.825Z,22.55
2018-09-17T00:50:08.415Z,22.49
2018-09-17T00:52:37.900Z,22.29
2018-09-17T00:55:07.443Z,22.21
2018-09-17T00:57:36.995Z,22.06
2018-09-17T01:00:06.663Z,21.96
2018-09-17T01:02:36.153Z,21.93
2018-09-17T01:05:05.815Z,21.82
2018-09-17T01:07:35.306Z,21.79
2018-09-17T01:10:05.102Z,21.75
2018-09-17T01:12:34.630Z,21.68
2018-09-17T01:15:04.239Z,21.59
2018-09-17T01:17:33.722Z,21.61
2018-09-17T01:20:03.342Z,21.57
2018-09-17T01:22:32.856Z,21.55
2018-09-17T01:25:02.403Z,21.54
2018-09-17T01:27:31.890Z,21.52
2018-09-17T01:30:01.403Z,21.46
2018-09-17T01:32:30.923Z,21.51
2018-09-17T01:35:00.431Z,21.48
2018-09-17T01:37:29.950Z,21.45
2018-09-17T01:39:59.481Z,21.42
2018-09-17T01:42:28.980Z,21.38
2018-09-17T01:44:58.457Z,21.33
2018-09-17T01:47:27.930Z,21.29
2018-09-17T01:49:57.458Z,21.33
2018-09-17T01:52:26.926Z,21.28
2018-09-17T01:54:56.413Z,21.28
2018-09-17T01:57:26.261Z,21.23
2018-09-17T01:59:55.779Z,21.21
2018-09-17T02:02:25.239Z,21.23
2018-09-17T02:04:54.764Z,21.25
2018-09-17T02:07:24.271Z,21.27
2018-09-17T02:09:53.834Z,21.29
2018-09-17T02:12:23.336Z,21.26
2018-09-17T02:14:52.806Z,21.29
2018-09-17T02:17:22.352Z,21.29
2018-09-17T02:19:51.863Z,21.32
2018-09-17T02:22:21.406Z,21.38
2018-09-17T02:24:51.005Z,21.41
2018-09-17T02:27:20.631Z,21.46
2018-09-17T02:29:50.174Z,21.51
2018-09-17T02:32:19.676Z,21.57
2018-09-17T02:34:49.245Z,21.59
2018-09-17T02:37:18.771Z,21.53
2018-09-17T02:39:48.307Z,21.55
2018-09-17T02:42:17.845Z,21.57
2018-09-17T02:44:47.354Z,21.58
2018-09-17T02:47:16.993Z,21.64
2018-09-17T02:49:46.539Z,21.62
2018-09-17T02:52:16.097Z,21.58
2018-09-17T02:54:45.596Z,21.61
2018-09-17T02:57:15.158Z,21.59
2018-09-17T02:59:44.666Z,21.57
2018-09-17T03:02:14.194Z,21.56
2018-09-17T03:04:43.737Z,21.51
2018-09-17T03:07:13.234Z,21.51
2018-09-17T03:09:42.824Z,21.46
2018-09-17T03:12:12.435Z,21.46
2018-09-17T03:14:41.998Z,21.42
2018-09-17T03:17:13.775Z,20.76
2018-09-17T03:19:44.267Z,21.38
2018-09-17T03:22:14.424Z,21.32
2018-09-17T03:24:43.988Z,21.33
2018-09-17T03:27:13.529Z,21.31
2018-09-17T03:29:43.101Z,21.32
2018-09-17T03:32:12.662Z,21.31
2018-09-17T03:34:42.227Z,21.31
2018-09-17T03:37:11.755Z,21.30
2018-09-17T03:39:41.343Z,21.31
2018-09-17T03:42:10.874Z,21.33
2018-09-17T03:44:40.388Z,21.28
2018-09-17T03:47:09.940Z,21.26
2018-09-17T03:49:39.502Z,21.28
2018-09-17T03:52:09.002Z,21.30
2018-09-17T03:54:38.565Z,21.30
2018-09-17T03:57:08.127Z,21.29
2018-09-17T03:59:37.622Z,21.22
2018-09-17T04:02:07.181Z,21.23
2018-09-17T04:04:36.954Z,21.24
2018-09-17T04:07:06.512Z,21.24
2018-09-17T04:09:36.016Z,21.21
2018-09-17T04:12:05.602Z,21.27
2018-09-17T04:14:35.162Z,21.29
2018-09-17T04:17:04.721Z,21.32
2018-09-17T04:19:34.264Z,21.33
2018-09-17T04:22:03.844Z,21.34
2018-09-17T04:24:33.338Z,21.36
2018-09-17T04:27:02.858Z,21.37
2018-09-17T04:29:32.387Z,21.39
2018-09-17T04:32:01.942Z,21.40
2018-09-17T04:34:31.534Z,21.43
2018-09-17T04:37:01.103Z,21.45
2018-09-17T04:39:30.718Z,21.48
2018-09-17T04:42:00.326Z,20.97
2018-09-17T04:44:29.824Z,21.47
2018-09-17T04:46:59.406Z,21.44
2018-09-17T04:49:28.908Z,21.49
2018-09-17T04:51:58.441Z,21.45
2018-09-17T04:54:27.934Z,21.49
2018-09-17T04:56:57.473Z,21.51
2018-09-17T04:59:27.036Z,21.48
2018-09-17T05:01:56.616Z,21.53
2018-09-17T05:04:26.247Z,21.53
2018-09-17T05:06:55.751Z,21.61
2018-09-17T05:09:25.338Z,21.63
2018-09-17T05:11:55.039Z,21.64
2018-09-17T05:14:24.584Z,21.69
2018-09-17T05:16:54.115Z,21.63
2018-09-17T05:19:23.695Z,21.76
2018-09-17T05:21:53.287Z,21.72
2018-09-17T05:24:22.856Z,21.80
2018-09-17T05:26:52.664Z,21.83
2018-09-17T05:29:22.310Z,21.83
2018-09-17T05:31:52.199Z,21.94
2018-09-17T05:34:22.662Z,21.85
2018-09-17T05:36:52.214Z,21.76
2018-09-17T05:39:21.860Z,21.95
2018-09-17T05:41:53.157Z,22.10
2018-09-17T05:44:22.743Z,22.24
2018-09-17T05:46:52.251Z,21.38
2018-09-17T05:49:21.791Z,22.47
2018-09-17T05:51:51.367Z,22.70
2018-09-17T05:54:20.888Z,22.76
2018-09-17T05:56:50.468Z,22.83
2018-09-17T05:59:20.034Z,22.94
2018-09-17T06:01:50.256Z,23.12
2018-09-17T06:04:19.738Z,23.42
2018-09-17T06:06:49.346Z,23.48
2018-09-17T06:09:18.851Z,23.56
2018-09-17T06:11:48.429Z,23.80
2018-09-17T06:14:17.991Z,24.07
2018-09-17T06:16:47.524Z,24.31
2018-09-17T06:19:17.085Z,24.43
2018-09-17T06:21:46.686Z,24.68
2018-09-17T06:24:16.263Z,24.83
2018-09-17T06:26:45.882Z,24.85
2018-09-17T06:29:15.566Z,24.91
2018-09-17T06:31:45.183Z,25.06
2018-09-17T06:34:14.763Z,25.09
2018-09-17T06:36:44.331Z,25.30
2018-09-17T06:39:13.951Z,25.48
2018-09-17T06:41:43.537Z,25.42
2018-09-17T06:44:13.123Z,25.65
2018-09-17T06:46:42.709Z,25.73
2018-09-17T06:49:12.249Z,25.73
2018-09-17T06:51:41.818Z,25.72
2018-09-17T06:54:11.371Z,25.96
2018-09-17T06:56:41.040Z,26.04
2018-09-17T06:59:10.790Z,25.95
2018-09-17T07:01:40.408Z,26.04
2018-09-17T07:04:10.145Z,26.12
2018-09-17T07:06:39.833Z,25.85
2018-09-17T07:09:11.484Z,25.96
2018-09-17T07:11:41.111Z,25.75
2018-09-17T07:14:10.970Z,25.17
2018-09-17T07:16:40.626Z,25.73
2018-09-17T07:19:10.239Z,25.72
2018-09-17T07:21:39.844Z,25.78
2018-09-17T07:24:09.857Z,25.75
2018-09-17T07:26:39.715Z,25.48
2018-09-17T07:29:09.353Z,25.70
2018-09-17T07:31:38.940Z,25.82
2018-09-17T07:34:08.720Z,25.95
2018-09-17T07:36:38.377Z,26.07
2018-09-17T07:39:10.104Z,26.35
2018-09-17T07:41:39.882Z,26.66
2018-09-17T07:44:09.520Z,26.21
2018-09-17T07:46:39.099Z,26.44
2018-09-17T07:49:08.657Z,26.61
2018-09-17T07:51:38.280Z,26.71
2018-09-17T07:54:07.895Z,26.53
2018-09-17T07:56:37.578Z,26.81
2018-09-17T07:59:07.328Z,27.03
2018-09-17T08:01:37.015Z,26.96
2018-09-17T08:04:06.594Z,26.94
2018-09-17T08:06:37.498Z,26.83
2018-09-17T08:09:10.537Z,26.47
2018-09-17T08:11:41.057Z,26.46
2018-09-17T08:14:11.139Z,26.33
2018-09-17T08:16:41.697Z,26.29
2018-09-17T08:19:11.775Z,26.26
2018-09-17T08:21:41.344Z,26.23
2018-09-17T08:24:10.959Z,26.12
2018-09-17T08:26:40.539Z,25.91
2018-09-17T08:29:10.320Z,25.60
2018-09-17T08:31:39.866Z,25.79
2018-09-17T08:34:09.510Z,26.08
2018-09-17T08:36:39.422Z,26.30
2018-09-17T08:39:12.418Z,26.25
2018-09-17T08:41:43.212Z,26.25
2018-09-17T08:44:13.058Z,26.37
2018-09-17T08:46:43.497Z,26.44
2018-09-17T08:49:14.285Z,26.62
2018-09-17T08:51:44.726Z,26.72
2018-09-17T08:54:15.241Z,26.88
2018-09-17T08:56:49.738Z,27.05
2018-09-17T08:59:24.439Z,27.03
2018-09-17T09:02:01.156Z,27.21
2018-09-17T09:04:36.318Z,27.24
2018-09-17T09:07:07.491Z,27.34
2018-09-17T09:09:37.265Z,27.38
2018-09-17T09:12:40.874Z,27.28
2018-09-17T09:15:15.406Z,27.35
2018-09-17T09:17:45.097Z,27.54
2018-09-17T09:20:14.959Z,27.49
2018-09-17T09:22:44.796Z,27.54
2018-09-17T09:25:14.621Z,27.69
2018-09-17T09:27:44.384Z,27.74
2018-09-17T09:30:14.095Z,28.02
2018-09-17T09:32:43.651Z,28.17
2018-09-17T09:35:13.520Z,28.28
2018-09-17T09:37:43.926Z,28.43
2018-09-17T09:40:13.936Z,28.38
2018-09-17T09:42:44.767Z,28.30
2018-09-17T09:45:15.224Z,28.20
2018-09-17T09:47:45.364Z,28.27
2018-09-17T09:50:14.984Z,28.30
2018-09-17T09:52:44.596Z,28.18
2018-09-17T09:55:14.079Z,28.06
2018-09-17T09:57:43.660Z,28.28
2018-09-17T10:00:18.333Z,28.26
2018-09-17T10:02:48.663Z,28.43
2018-09-17T10:05:18.188Z,28.36
2018-09-17T10:07:47.882Z,28.48
2018-09-17T10:10:22.642Z,28.43
2018-09-17T10:12:57.332Z,28.34
2018-09-17T10:15:31.775Z,28.33
2018-09-17T10:18:06.327Z,28.40
2018-09-17T10:20:35.896Z,28.38
2018-09-17T10:23:05.488Z,28.35
2018-09-17T10:25:35.038Z,28.10
2018-09-17T10:28:04.628Z,27.93
2018-09-17T10:30:34.323Z,28.06
2018-09-17T10:33:04.049Z,28.05
2018-09-17T10:35:33.636Z,28.18
2018-09-17T10:38:03.615Z,28.07
2018-09-17T10:40:33.137Z,28.17
2018-09-17T10:43:02.856Z,28.19
2018-09-17T10:45:32.439Z,28.23
2018-09-17T10:48:02.019Z,28.30
2018-09-17T10:50:31.536Z,28.25
2018-09-17T10:53:01.284Z,28.16
2018-09-17T10:55:30.859Z,28.31
2018-09-17T10:58:00.439Z,28.41
2018-09-17T11:00:30.007Z,28.36
2018-09-17T11:02:59.575Z,28.49
2018-09-17T11:05:29.089Z,28.53
2018-09-17T11:07:58.671Z,28.53
2018-09-17T11:10:28.299Z,28.64
2018-09-17T11:12:57.820Z,28.60
2018-09-17T11:15:32.251Z,28.55
2018-09-17T11:18:01.807Z,28.42
2018-09-17T11:20:31.417Z,28.41
2018-09-17T11:23:01.075Z,28.47
2018-09-17T11:25:32.299Z,28.39
2018-09-17T11:28:01.902Z,28.33
2018-09-17T11:30:31.454Z,28.43
2018-09-17T11:33:01.042Z,28.42
2018-09-17T11:35:30.565Z,28.59
2018-09-17T11:38:00.098Z,28.54
2018-09-17T11:40:29.663Z,28.70
2018-09-17T11:42:59.224Z,28.65
2018-09-17T11:45:28.752Z,28.15
2018-09-17T11:47:58.326Z,28.79
2018-09-17T11:50:27.891Z,28.81
2018-09-17T11:52:57.470Z,28.81
2018-09-17T11:55:27.168Z,28.87
2018-09-17T11:57:56.723Z,28.76
2018-09-17T12:00:31.339Z,28.70
2018-09-17T12:03:05.824Z,28.54
2018-09-17T12:05:40.384Z,28.60
2018-09-17T12:08:14.031Z,28.67
2018-09-17T12:10:43.581Z,28.75
2018-09-17T12:13:13.098Z,28.83
2018-09-17T12:15:45.313Z,28.85
2018-09-17T12:18:15.032Z,28.88
2018-09-17T12:20:44.599Z,28.93
2018-09-17T12:23:14.132Z,29.00
2018-09-17T12:25:43.695Z,28.92
2018-09-17T12:28:13.334Z,28.95
2018-09-17T12:30:43.969Z,29.02
2018-09-17T12:33:13.687Z,29.00
2018-09-17T12:35:43.588Z,29.00
2018-09-17T12:38:13.309Z,28.88
2018-09-17T12:40:44.118Z,29.03
2018-09-17T12:43:14.428Z,29.07
2018-09-17T12:45:44.191Z,29.17
2018-09-17T12:48:14.340Z,29.16
2018-09-17T12:50:44.005Z,29.21
2018-09-17T12:53:13.708Z,29.24
2018-09-17T12:55:43.421Z,29.28
2018-09-17T12:58:13.617Z,29.22
2018-09-17T13:00:43.278Z,29.27
2018-09-17T13:03:13.016Z,29.11
2018-09-17T13:05:42.679Z,29.23
2018-09-17T13:08:12.257Z,29.25
2018-09-17T13:10:41.775Z,29.31
2018-09-17T13:13:11.392Z,29.36
2018-09-17T13:15:46.115Z,29.31
2018-09-17T13:18:15.931Z,29.31
2018-09-17T13:20:45.647Z,29.24
2018-09-17T13:23:15.268Z,29.21
2018-09-17T13:25:44.885Z,29.26
2018-09-17T13:28:14.617Z,29.35
2018-09-17T13:30:44.241Z,29.27
2018-09-17T13:33:13.859Z,29.32
2018-09-17T13:35:43.440Z,29.33
2018-09-17T13:38:13.013Z,29.25
2018-09-17T13:40:42.560Z,29.29
2018-09-17T13:43:12.091Z,29.34
2018-09-17T13:45:41.734Z,29.36
2018-09-17T13:48:11.258Z,29.42
2018-09-17T13:50:40.831Z,29.37
2018-09-17T13:53:10.442Z,29.41
2018-09-17T13:55:39.934Z,29.46
2018-09-17T13:58:10.391Z,29.39
2018-09-17T14:00:40.016Z,29.38
2018-09-17T14:03:09.780Z,29.35
2018-09-17T14:05:39.364Z,29.29
2018-09-17T14:08:08.930Z,29.38
2018-09-17T14:10:38.509Z,29.37
2018-09-17T14:13:08.709Z,29.40
2018-09-17T14:15:38.357Z,29.41
2018-09-17T14:18:07.924Z,29.38
2018-09-17T14:20:37.549Z,29.30
2018-09-17T14:23:07.482Z,29.32
2018-09-17T14:25:37.056Z,29.34
2018-09-17T14:28:06.819Z,29.32
2018-09-17T14:30:36.407Z,29.28
2018-09-17T14:33:11.172Z,29.26
2018-09-17T14:35:40.799Z,29.31
2018-09-17T14:38:10.408Z,29.30
2018-09-17T14:40:40.085Z,29.26
2018-09-17T14:43:09.642Z,29.23
2018-09-17T14:45:40.020Z,29.10
2018-09-17T14:48:09.850Z,28.96
2018-09-17T14:50:39.541Z,28.95
2018-09-17T14:53:09.107Z,28.98
2018-09-17T14:55:38.687Z,28.89
2018-09-17T14:58:08.272Z,28.87
2018-09-17T15:00:37.843Z,28.79
2018-09-17T15:03:07.839Z,28.83
2018-09-17T15:05:37.496Z,28.70
2018-09-17T15:08:07.548Z,28.62
2018-09-17T15:10:37.038Z,28.64
2018-09-17T15:13:06.741Z,28.57
2018-09-17T15:16:06.523Z,28.56
2018-09-17T15:18:36.135Z,28.50
2018-09-17T15:21:05.678Z,28.39
2018-09-17T15:23:35.267Z,28.37
2018-09-17T15:26:05.225Z,28.14
2018-09-17T15:28:34.742Z,28.23
2018-09-17T15:31:04.394Z,28.22
2018-09-17T15:33:33.908Z,28.14
2018-09-17T15:36:03.483Z,28.14
2018-09-17T15:38:33.020Z,28.10
2018-09-17T15:41:02.755Z,27.99
2018-09-17T15:43:32.183Z,28.01
2018-09-17T15:46:01.740Z,27.98
2018-09-17T15:48:31.297Z,27.90
2018-09-17T15:51:00.883Z,27.83
2018-09-17T15:53:30.459Z,27.79
2018-09-17T15:56:00.284Z,27.71
2018-09-17T15:58:29.852Z,27.61
2018-09-17T16:00:59.461Z,27.47
2018-09-17T16:03:28.936Z,27.35
2018-09-17T16:05:58.535Z,27.19
2018-09-17T16:08:28.091Z,27.21
2018-09-17T16:10:57.609Z,27.14
2018-09-17T16:13:27.149Z,26.92
2018-09-17T16:15:56.669Z,26.84
2018-09-17T16:18:26.272Z,26.69
2018-09-17T16:20:55.819Z,26.69
2018-09-17T16:23:25.330Z,26.68
2018-09-17T16:25:54.907Z,26.60
2018-09-17T16:28:24.429Z,26.57
2018-09-17T16:30:53.987Z,26.43
2018-09-17T16:33:23.542Z,26.40
2018-09-17T16:35:53.136Z,26.35
2018-09-17T16:38:22.658Z,26.20
2018-09-17T16:40:52.226Z,26.12
2018-09-17T16:43:21.739Z,26.10
2018-09-17T16:45:51.234Z,26.04
2018-09-17T16:48:20.784Z,25.93
2018-09-17T16:50:50.331Z,25.88
2018-09-17T16:53:19.953Z,25.85
2018-09-17T16:55:49.410Z,25.86
2018-09-17T16:58:19.039Z,25.84
2018-09-17T17:00:48.857Z,25.85
2018-09-17T17:03:18.466Z,25.80
2018-09-17T17:05:48.017Z,25.71
2018-09-17T17:08:17.571Z,25.72
2018-09-17T17:10:47.131Z,25.65
2018-09-17T17:13:16.658Z,25.60
2018-09-17T17:15:48.561Z,25.59
2018-09-17T17:18:19.495Z,25.57
2018-09-17T17:20:49.070Z,25.55
2018-09-17T17:23:18.559Z,25.52
2018-09-17T17:25:48.088Z,25.45
2018-09-17T17:28:17.898Z,25.43
2018-09-17T17:30:47.671Z,25.43
2018-09-17T17:33:17.260Z,25.36
2018-09-17T17:35:46.835Z,25.31
2018-09-17T17:38:16.414Z,25.28
2018-09-17T17:40:46.016Z,25.24
2018-09-17T17:43:15.531Z,25.17
2018-09-17T17:45:45.115Z,25.13
2018-09-17T17:48:14.615Z,25.09
2018-09-17T17:50:44.154Z,25.01
2018-09-17T17:53:13.716Z,24.97
2018-09-17T17:55:43.316Z,24.87
2018-09-17T17:58:12.838Z,24.87
2018-09-17T18:00:42.417Z,24.86
2018-09-17T18:03:11.982Z,24.80
2018-09-17T18:05:41.516Z,24.78
2018-09-17T18:08:11.099Z,24.75
2018-09-17T18:10:40.684Z,24.71
2018-09-17T18:13:10.276Z,24.64
2018-09-17T18:15:39.977Z,24.61
2018-09-17T18:18:09.532Z,24.60
2018-09-17T18:20:39.190Z,24.54
2018-09-17T18:23:08.713Z,24.50
2018-09-17T18:25:38.239Z,24.38
2018-09-17T18:28:07.768Z,24.25
2018-09-17T18:30:37.308Z,24.19
2018-09-17T18:33:06.862Z,24.14
2018-09-17T18:35:36.463Z,24.12
2018-09-17T18:38:06.298Z,24.11
2018-09-17T18:40:35.970Z,24.04
2018-09-17T18:43:05.551Z,24.01
2018-09-17T18:45:35.151Z,23.97
2018-09-17T18:48:04.750Z,23.91
2018-09-17T18:50:34.305Z,23.92
2018-09-17T18:53:03.887Z,23.78
2018-09-17T18:55:33.400Z,23.78
2018-09-17T18:58:02.927Z,23.71
2018-09-17T19:00:32.441Z,23.70
2018-09-17T19:03:02.010Z,23.63
2018-09-17T19:05:31.615Z,23.65
2018-09-17T19:08:01.254Z,23.59
2018-09-17T19:10:30.852Z,23.58
2018-09-17T19:13:00.437Z,23.52
2018-09-17T19:15:35.003Z,23.50
2018-09-17T19:18:09.742Z,23.48
2018-09-17T19:20:39.458Z,23.41
2018-09-17T19:23:13.832Z,22.80
2018-09-17T19:25:43.371Z,23.36
2018-09-17T19:28:18.092Z,23.34
2018-09-17T19:30:47.693Z,23.25
2018-09-17T19:33:17.256Z,23.26
2018-09-17T19:35:46.870Z,23.15
2018-09-17T19:38:21.445Z,23.10
2018-09-17T19:40:51.035Z,22.95
2018-09-17T19:43:20.503Z,22.86
2018-09-17T19:45:55.241Z,22.85
2018-09-17T19:48:24.746Z,22.85
2018-09-17T19:50:59.415Z,22.68
2018-09-17T19:53:28.907Z,22.72
2018-09-17T19:55:58.591Z,22.72
2018-09-17T19:58:33.038Z,22.68
2018-09-17T20:01:02.576Z,22.72
2018-09-17T20:03:32.082Z,22.66
2018-09-17T20:06:06.582Z,22.67
2018-09-17T20:08:36.135Z,22.64
2018-09-17T20:11:05.747Z,22.69
2018-09-17T20:13:35.282Z,22.59
2018-09-17T20:16:04.791Z,22.64
2018-09-17T20:18:34.315Z,22.51
2018-09-17T20:21:03.928Z,22.53
2018-09-17T20:23:33.422Z,22.55
2018-09-17T20:26:03.013Z,22.47
2018-09-17T20:28:32.644Z,22.47
2018-09-17T20:31:02.130Z,21.84
2018-09-17T20:33:33.379Z,22.36
2018-09-17T20:36:03.003Z,22.40
2018-09-17T20:38:32.689Z,22.37
2018-09-17T20:41:02.216Z,22.38
2018-09-17T20:43:31.743Z,22.37
2018-09-17T20:46:01.272Z,22.24
2018-09-17T20:48:30.784Z,22.29
2018-09-17T20:51:00.337Z,22.19
2018-09-17T20:53:29.870Z,22.16
2018-09-17T20:55:59.396Z,22.08
2018-09-17T20:58:28.950Z,21.95
2018-09-17T21:00:58.668Z,22.02
2018-09-17T21:03:28.018Z,21.98
2018-09-17T21:05:57.570Z,21.97
2018-09-17T21:08:27.103Z,21.90
2018-09-17T21:10:56.607Z,21.85
2018-09-17T21:13:26.186Z,21.87
2018-09-17T21:15:55.705Z,21.91
2018-09-17T21:18:25.243Z,21.95
2018-09-17T21:20:54.784Z,22.00
2018-09-17T21:23:24.367Z,22.03
2018-09-17T21:25:53.866Z,22.00
2018-09-17T21:28:23.344Z,21.96
2018-09-17T21:30:52.926Z,21.97
2018-09-17T21:33:22.432Z,21.99
2018-09-17T21:35:51.896Z,21.83
2018-09-17T21:38:21.467Z,21.87
2018-09-17T21:40:51.053Z,21.77
2018-09-17T21:43:20.632Z,21.63
2018-09-17T21:45:50.135Z,21.65
2018-09-17T21:48:19.687Z,21.66
2018-09-17T21:50:49.188Z,21.59
2018-09-17T21:53:18.703Z,21.61
2018-09-17T21:55:48.194Z,21.60
2018-09-17T21:58:17.678Z,21.53
2018-09-17T22:00:52.348Z,21.48
2018-09-17T22:03:21.895Z,21.59
2018-09-17T22:05:51.387Z,21.57
2018-09-17T22:08:20.946Z,21.56
2018-09-17T22:10:50.447Z,21.55
2018-09-17T22:13:19.996Z,21.55
2018-09-17T22:15:49.520Z,21.42
2018-09-17T22:18:19.167Z,21.44
2018-09-17T22:20:48.740Z,21.37
2018-09-17T22:23:18.311Z,21.32
2018-09-17T22:25:47.815Z,21.13
2018-09-17T22:28:17.346Z,21.22
2018-09-17T22:30:46.873Z,21.21
2018-09-17T22:33:16.412Z,21.15
2018-09-17T22:35:45.926Z,21.07
2018-09-17T22:38:15.450Z,21.13
2018-09-17T22:40:45.171Z,21.05
2018-09-17T22:43:14.702Z,21.12
2018-09-17T22:45:44.198Z,21.08
2018-09-17T22:48:13.706Z,21.04
2018-09-17T22:50:43.269Z,21.01
2018-09-17T22:53:12.900Z,20.99
2018-09-17T22:55:42.392Z,21.00
2018-09-17T22:58:11.939Z,20.99
2018-09-17T23:00:41.447Z,20.98
2018-09-17T23:03:10.991Z,21.00
2018-09-17T23:05:40.523Z,20.99
2018-09-17T23:08:10.022Z,20.95
2018-09-17T23:10:39.567Z,20.87
2018-09-17T23:13:09.059Z,20.85
2018-09-17T23:15:38.605Z,20.79
2018-09-17T23:18:08.147Z,20.73
2018-09-17T23:20:37.698Z,20.72
2018-09-17T23:23:07.215Z,20.69
2018-09-17T23:25:37.084Z,20.70
2018-09-17T23:28:06.964Z,20.60
2018-09-17T23:30:36.487Z,20.57
2018-09-17T23:33:06.102Z,20.57
2018-09-17T23:35:35.627Z,20.54
2018-09-17T23:38:05.126Z,20.50
2018-09-17T23:40:34.771Z,20.47
2018-09-17T23:43:04.372Z,20.46
2018-09-17T23:45:33.928Z,20.44
2018-09-17T23:48:03.532Z,20.44
2018-09-17T23:50:33.063Z,20.44
2018-09-17T23:53:02.604Z,20.44
2018-09-17T23:55:32.107Z,20.40
2018-09-17T23:58:01.635Z,20.36
